Mans Punta del Este, Puerto Rico
Current Conditions -  °F | °C
As of 5:53 PM on Thursday 23 Oct 2014 (Local Time) from TJNR Reporting Station
Overcast Overcast  
Wind Chill: 84°   Ceiling: 2200
Heat Index: 93°   Visibility: 10mi
Dew Point: 76°   Wind: 7mph
Humidity: 76%   Direction: 150°SSE
Pressure: 29.92"   Gusts: NA
Location:  18.3304°N, 65.6573°W
Report Text: TJNR 232153Z AUTO 15006KT 10SM BKN022 OVC031 29/24 A2992 RMK AO2 RAB05E14 SLP133 P0000 T02890244 $
Loading
Personal Weather Stations






























Interactive Weather Map
Tropical Storm Tracking
New forecast layout! Learn more

10-Day Weather Forecast

Advertisements
Track Severe Weather on mobile